Time;durP1;ratioP1;P1;durP2;ratioP2;P2;SDS_P1;SDS_P2;PMS_P1;PMS_P2;Temp;Humidity;BMP_temperature;BMP_pressure;BME280_temperature;BME280_humidity;BME280_pressure;Samples;Min_cycle;Max_cycle;Signal;HPM_P1;HPM_P2
2022/08/20 06:01:37;;;;;;;;;1.00;1.00;;;;;-147.14;100.00;58812.66;5473252;22;8853;-73
2022/08/20 06:06:47;;;;;;;;;1.50;0.00;;;;;-147.14;100.00;58812.66;5065996;28;9181;-73
2022/08/20 06:09:17;;;;;;;;;2.00;0.67;;;;;-147.14;100.00;58812.66;5056942;28;8935;-73
2022/08/20 06:11:42;;;;;;;;;0.25;0.25;;;;;-147.14;100.00;58812.66;5055411;28;8901;-74
2022/08/20 06:14:08;;;;;;;;;5.00;1.00;;;;;-147.14;100.00;58812.66;5055384;28;21038;-73
2022/08/20 06:16:33;;;;;;;;;0.00;0.00;;;;;-147.14;100.00;58812.66;5054810;28;23716;-74
2022/08/20 06:18:58;;;;;;;;;1.00;1.00;;;;;-147.14;100.00;58812.66;5054223;28;35438;-73
2022/08/20 06:21:25;;;;;;;;;1.00;0.00;;;;;-147.14;100.00;58812.66;5054704;28;9589;-73
2022/08/20 06:23:50;;;;;;;;;3.25;1.00;;;;;-147.14;100.00;58812.66;5065520;28;8792;-74
2022/08/20 06:26:16;;;;;;;;;2.00;2.00;;;;;-147.14;100.00;58812.66;5065732;28;8863;-74
2022/08/20 06:28:41;;;;;;;;;1.00;1.00;;;;;-147.14;100.00;58812.66;5067090;28;8813;-74
2022/08/20 06:31:08;;;;;;;;;2.00;1.00;;;;;-147.14;100.00;58812.66;5061174;28;8836;-74
2022/08/20 06:33:33;;;;;;;;;2.25;1.00;;;;;-147.14;100.00;58812.66;5063401;28;8857;-73
2022/08/20 06:35:59;;;;;;;;;1.00;1.00;;;;;-147.14;100.00;58812.66;5053682;28;8824;-73
2022/08/20 06:38:24;;;;;;;;;1.00;1.00;;;;;-147.14;100.00;58812.66;5069839;28;8824;-74
2022/08/20 06:40:49;;;;;;;;;1.00;1.00;;;;;-147.14;100.00;58812.66;5055818;28;29056;-73
2022/08/20 06:43:15;;;;;;;;;1.00;1.00;;;;;-147.14;100.00;58812.66;5057327;28;30060;-73
2022/08/20 06:45:40;;;;;;;;;1.00;0.00;;;;;-147.14;100.00;58812.66;5073477;28;32943;-73
2022/08/20 06:48:11;;;;;;;;;4.67;1.00;;;;;-147.14;100.00;58812.66;5068700;28;8952;-72
2022/08/20 06:50:40;;;;;;;;;0.00;0.00;;;;;-147.14;100.00;58812.66;5058211;28;8828;-72
2022/08/20 06:53:07;;;;;;;;;1.00;0.40;;;;;-147.14;100.00;58812.66;5057751;28;8820;-73
2022/08/20 06:55:33;;;;;;;;;1.25;1.00;;;;;-147.14;100.00;58812.66;5057672;28;8885;-72
2022/08/20 06:58:00;;;;;;;;;4.00;2.00;;;;;-147.14;100.00;58812.66;5058632;28;8820;-72
2022/08/20 07:00:27;;;;;;;;;0.75;0.75;;;;;-147.14;100.00;58812.66;5059728;28;8803;-72
2022/08/20 07:02:52;;;;;;;;;1.00;1.00;;;;;-147.14;100.00;58812.66;5042259;28;9362;-73
2022/08/20 07:05:18;;;;;;;;;1.00;0.50;;;;;-147.14;100.00;58812.66;5058912;28;29905;-72
2022/08/20 07:07:45;;;;;;;;;2.00;0.00;;;;;-147.14;100.00;58812.66;5068062;28;8852;-72
2022/08/20 07:10:12;;;;;;;;;0.00;0.00;;;;;-147.14;100.00;58812.66;5043343;28;9777;-72
2022/08/20 07:12:38;;;;;;;;;0.00;0.00;;;;;-147.14;100.00;58812.66;5059232;28;8823;-73
2022/08/20 07:15:06;;;;;;;;;0.50;0.00;;;;;-147.14;100.00;58812.66;5059122;28;35618;-72
2022/08/20 07:17:31;;;;;;;;;0.80;0.80;;;;;-147.14;100.00;58812.66;5059856;28;8871;-71
2022/08/20 07:19:56;;;;;;;;;1.00;1.00;;;;;-147.14;100.00;58812.66;5061777;28;8838;-72
2022/08/20 07:22:23;;;;;;;;;1.00;1.00;;;;;-147.14;100.00;58812.66;5063682;28;27038;-72
2022/08/20 07:24:49;;;;;;;;;1.80;0.00;;;;;-147.14;100.00;58812.66;5064113;28;8819;-72
2022/08/20 07:27:19;;;;;;;;;1.25;0.75;;;;;-147.14;100.00;58812.66;5066864;28;9762;-64
2022/08/20 07:32:35;;;;;;;;;0.00;0.00;;;;;-147.14;100.00;58812.66;5070612;28;8794;-64
2022/08/20 07:35:03;;;;;;;;;0.00;0.00;;;;;-147.14;100.00;58812.66;5061058;28;8812;-70
2022/08/20 07:37:28;;;;;;;;;3.80;0.60;;;;;-147.14;100.00;58812.66;5063149;28;8844;-69
2022/08/20 07:39:54;;;;;;;;;2.00;0.00;;;;;-147.14;100.00;58812.66;5057600;28;8860;-70
2022/08/20 07:42:19;;;;;;;;;0.00;0.00;;;;;-147.14;100.00;58812.66;5068072;28;8940;-70
2022/08/20 07:44:44;;;;;;;;;1.00;1.00;;;;;-147.14;100.00;58812.66;5059734;28;31257;-69
2022/08/20 07:47:11;;;;;;;;;0.00;0.00;;;;;-147.14;100.00;58812.66;5056043;28;28344;-70
2022/08/20 07:49:37;;;;;;;;;1.00;1.00;;;;;-147.14;100.00;58812.66;5056690;28;8874;-70
2022/08/20 07:52:04;;;;;;;;;2.40;0.60;;;;;-147.14;100.00;58812.66;5067395;28;8802;-69
2022/08/20 07:54:29;;;;;;;;;1.40;1.20;;;;;-147.14;100.00;58812.66;5064746;28;9697;-69
2022/08/20 07:56:54;;;;;;;;;4.00;2.00;;;;;-147.14;100.00;58812.66;5065414;28;30136;-70
2022/08/20 07:59:20;;;;;;;;;0.00;0.00;;;;;-147.14;100.00;58812.66;5063920;28;30303;-70
2022/08/20 08:01:45;;;;;;;;;1.25;0.25;;;;;-147.14;100.00;58812.66;5063047;28;8855;-70
2022/08/20 08:04:11;;;;;;;;;0.00;0.00;;;;;-147.14;100.00;58812.66;5057855;28;33324;-70
2022/08/20 08:06:36;;;;;;;;;2.00;1.00;;;;;-147.14;100.00;58812.66;5056163;28;29649;-69
2022/08/20 08:09:08;;;;;;;;;1.00;1.00;;;;;-147.14;100.00;58812.66;5058366;28;32656;-63
2022/08/20 08:11:37;;;;;;;;;0.00;0.00;;;;;-147.14;100.00;58812.66;5042788;28;8812;-64
2022/08/20 08:14:05;;;;;;;;;1.00;1.00;;;;;-147.14;100.00;58812.66;5057841;28;8817;-64
2022/08/20 08:16:31;;;;;;;;;0.40;0.40;;;;;-147.14;100.00;58812.66;5050374;28;8838;-64
2022/08/20 08:18:57;;;;;;;;;4.20;1.40;;;;;-147.14;100.00;58812.66;5066256;28;8844;-64
2022/08/20 08:21:23;;;;;;;;;1.00;0.00;;;;;-147.14;100.00;58812.66;5066735;28;8879;-64
2022/08/20 08:23:49;;;;;;;;;0.00;0.00;;;;;-147.14;100.00;58812.66;5067588;28;8897;-64
2022/08/20 08:26:15;;;;;;;;;0.75;0.75;;;;;-147.14;100.00;58812.66;5062433;28;8861;-64
2022/08/20 08:28:43;;;;;;;;;1.00;0.00;;;;;-147.14;100.00;58812.66;5057052;28;8812;-65
2022/08/20 08:31:09;;;;;;;;;1.20;1.20;;;;;-147.14;100.00;58812.66;5063094;28;8833;-70
2022/08/20 08:33:34;;;;;;;;;0.80;0.80;;;;;-147.14;100.00;58812.66;5070959;28;9674;-71
2022/08/20 08:36:11;;;;;;;;;1.00;0.00;;;;;-147.14;100.00;58812.66;5063261;28;8838;-73
2022/08/20 08:38:38;;;;;;;;;2.20;1.00;;;;;-147.14;100.00;58812.66;5056846;28;8775;-69
2022/08/20 08:41:13;;;;;;;;;1.00;1.00;;;;;-147.14;100.00;58812.66;5068254;28;8802;-69
2022/08/20 08:43:39;;;;;;;;;1.40;1.40;;;;;-147.14;100.00;58812.66;5040207;28;8925;-64
2022/08/20 08:46:08;;;;;;;;;0.75;0.75;;;;;-147.14;100.00;58812.66;5055189;28;19943;-64
2022/08/20 08:48:37;;;;;;;;;2.80;0.20;;;;;-147.14;100.00;58812.66;5036977;28;8939;-64
2022/08/20 08:51:11;;;;;;;;;1.00;0.40;;;;;-147.14;100.00;58812.66;5053068;28;9543;-64
2022/08/20 08:53:44;;;;;;;;;1.60;0.00;;;;;-147.14;100.00;58812.66;5046608;28;8798;-64
2022/08/20 08:56:10;;;;;;;;;2.80;1.00;;;;;-147.14;100.00;58812.66;5046584;28;8819;-64
2022/08/20 08:58:36;;;;;;;;;2.00;0.25;;;;;-147.14;100.00;58812.66;5047160;28;8821;-70
2022/08/20 09:01:13;;;;;;;;;2.00;0.75;;;;;-147.14;100.00;58812.66;5048060;28;11554;-70
2022/08/20 09:03:42;;;;;;;;;2.20;1.00;;;;;-147.14;100.00;58812.66;5065724;28;8820;-68
2022/08/20 09:06:12;;;;;;;;;1.00;1.00;;;;;-147.14;100.00;58812.66;5067241;28;8852;-70
2022/08/20 09:08:42;;;;;;;;;3.00;1.20;;;;;-147.14;100.00;58812.66;5062771;28;8813;-68
2022/08/20 09:11:09;;;;;;;;;0.00;0.00;;;;;-147.14;100.00;58812.66;5058320;28;8847;-68
2022/08/20 09:13:34;;;;;;;;;1.00;1.00;;;;;-147.14;100.00;58812.66;5064681;28;8817;-68
2022/08/20 09:16:00;;;;;;;;;3.25;1.25;;;;;-147.14;100.00;58812.66;5073005;28;8844;-68
2022/08/20 09:18:25;;;;;;;;;0.00;0.00;;;;;-147.14;100.00;58812.66;5061031;28;35300;-68
2022/08/20 09:20:51;;;;;;;;;1.50;0.00;;;;;-147.14;100.00;58812.66;5071976;28;34474;-68
2022/08/20 09:23:16;;;;;;;;;0.00;0.00;;;;;-147.14;100.00;58812.66;5061555;28;8870;-68
2022/08/20 09:25:42;;;;;;;;;2.00;0.50;;;;;-147.14;100.00;58812.66;5061070;28;20705;-68
2022/08/20 09:28:07;;;;;;;;;1.00;1.00;;;;;-147.14;100.00;58812.66;5066783;28;8908;-69
2022/08/20 09:30:32;;;;;;;;;1.50;0.00;;;;;-147.14;100.00;58812.66;5056057;28;8844;-65
2022/08/20 09:32:58;;;;;;;;;1.00;1.00;;;;;-147.14;100.00;58812.66;5064889;28;29130;-65
2022/08/20 09:35:24;;;;;;;;;0.00;0.00;;;;;-147.14;100.00;58812.66;5067568;28;9707;-65
2022/08/20 09:37:51;;;;;;;;;0.25;0.25;;;;;-147.14;100.00;58812.66;5055518;28;8839;-65
2022/08/20 09:40:17;;;;;;;;;0.00;0.00;;;;;-147.14;100.00;58812.66;5067210;28;8924;-69
2022/08/20 09:42:42;;;;;;;;;1.75;0.00;;;;;-147.14;100.00;58812.66;5069445;28;9695;-69
2022/08/20 09:45:08;;;;;;;;;0.00;0.00;;;;;-147.14;100.00;58812.66;5063287;28;30705;-69
2022/08/20 09:47:34;;;;;;;;;0.40;0.40;;;;;-147.14;100.00;58812.66;5055955;28;8816;-69
2022/08/20 09:49:59;;;;;;;;;0.00;0.00;;;;;-147.14;100.00;58812.66;5066094;28;28672;-69
2022/08/20 09:52:28;;;;;;;;;0.00;0.00;;;;;-147.14;100.00;58812.66;5060707;28;11407;-64
2022/08/20 09:54:57;;;;;;;;;0.00;0.00;;;;;-147.14;100.00;58812.66;5063797;28;8813;-64
2022/08/20 09:57:22;;;;;;;;;0.20;0.20;;;;;-147.14;100.00;58812.66;5065915;28;8814;-64
2022/08/20 09:59:52;;;;;;;;;0.00;0.00;;;;;-147.14;100.00;58812.66;5058983;28;8905;-64
2022/08/20 10:02:17;;;;;;;;;0.40;0.00;;;;;-147.14;100.00;58812.66;5063892;28;9682;-70
2022/08/20 10:04:43;;;;;;;;;1.00;0.00;;;;;-147.14;100.00;58812.66;5049227;28;8829;-70
2022/08/20 10:07:08;;;;;;;;;1.25;0.00;;;;;-147.14;100.00;58812.66;5062065;28;9598;-69
2022/08/20 10:09:35;;;;;;;;;1.00;1.00;;;;;-147.14;100.00;58812.66;5062699;28;9590;-69
2022/08/20 10:12:00;;;;;;;;;2.80;0.00;;;;;-147.14;100.00;58812.66;5072789;28;8810;-69
2022/08/20 10:14:26;;;;;;;;;0.00;0.00;;;;;-147.14;100.00;58812.66;5061862;28;18865;-69
2022/08/20 10:16:58;;;;;;;;;0.25;0.00;;;;;-147.14;100.00;58812.66;5066376;28;33822;-67
2022/08/20 10:19:24;;;;;;;;;1.00;0.20;;;;;-147.14;100.00;58812.66;5058144;28;8800;-70
2022/08/20 10:21:51;;;;;;;;;0.00;0.00;;;;;-147.14;100.00;58812.66;5061419;28;8879;-70
2022/08/20 10:24:17;;;;;;;;;0.20;0.20;;;;;-147.14;100.00;58812.66;5057746;28;8730;-71
2022/08/20 10:26:42;;;;;;;;;0.00;0.00;;;;;-147.14;100.00;58812.66;5068747;28;8830;-69
2022/08/20 10:29:08;;;;;;;;;1.75;0.25;;;;;-147.14;100.00;58812.66;5057551;28;8914;-65
2022/08/20 10:31:33;;;;;;;;;0.75;0.50;;;;;-147.14;100.00;58812.66;5066124;28;8962;-72
2022/08/20 10:33:58;;;;;;;;;0.25;0.25;;;;;-147.14;100.00;58812.66;5056955;28;8903;-71
2022/08/20 10:36:24;;;;;;;;;0.00;0.00;;;;;-147.14;100.00;58812.66;5061599;28;32125;-72
2022/08/20 10:38:49;;;;;;;;;0.00;0.00;;;;;-147.14;100.00;58812.66;5067904;28;32190;-70
2022/08/20 10:41:14;;;;;;;;;0.00;0.00;;;;;-147.14;100.00;58812.66;5056403;28;29308;-63
2022/08/20 10:43:40;;;;;;;;;1.50;0.75;;;;;-147.14;100.00;58812.66;5054935;28;8812;-64
2022/08/20 10:46:05;;;;;;;;;0.00;0.00;;;;;-147.14;100.00;58812.66;5061072;28;8858;-67
2022/08/20 10:48:31;;;;;;;;;0.75;0.00;;;;;-147.14;100.00;58812.66;5066632;28;8847;-69
2022/08/20 10:50:56;;;;;;;;;0.25;0.00;;;;;-147.14;100.00;58812.66;5057182;28;8879;-63
2022/08/20 10:53:22;;;;;;;;;0.00;0.00;;;;;-147.14;100.00;58812.66;5055561;28;25654;-63
2022/08/20 10:55:47;;;;;;;;;0.00;0.00;;;;;-147.14;100.00;58812.66;5068056;28;35910;-63
2022/08/20 10:58:13;;;;;;;;;0.00;0.00;;;;;-147.14;100.00;58812.66;5065822;28;35093;-64
2022/08/20 11:00:39;;;;;;;;;0.00;0.00;;;;;-147.14;100.00;58812.66;5069556;28;8856;-64
2022/08/20 11:03:04;;;;;;;;;0.00;0.00;;;;;-147.14;100.00;58812.66;5045636;28;8832;-69
2022/08/20 11:05:30;;;;;;;;;1.00;0.00;;;;;-147.14;100.00;58812.66;5059149;28;29442;-68
2022/08/20 11:07:56;;;;;;;;;0.75;0.75;;;;;-147.14;100.00;58812.66;5068961;28;31988;-67
2022/08/20 11:10:23;;;;;;;;;0.40;0.40;;;;;-147.14;100.00;58812.66;5061281;28;8808;-67
2022/08/20 11:12:48;;;;;;;;;0.80;0.00;;;;;-147.14;100.00;58812.66;5053311;28;8801;-67
2022/08/20 11:15:14;;;;;;;;;0.00;0.00;;;;;-147.14;100.00;58812.66;5056458;28;29059;-64
2022/08/20 11:17:41;;;;;;;;;1.75;0.25;;;;;-147.14;100.00;58812.66;5062735;28;9536;-66
2022/08/20 11:20:08;;;;;;;;;0.00;0.00;;;;;-147.14;100.00;58812.66;5059123;28;8846;-66
2022/08/20 11:22:34;;;;;;;;;0.20;0.20;;;;;-147.14;100.00;58812.66;5055449;28;8827;-66
2022/08/20 11:24:59;;;;;;;;;0.00;0.00;;;;;-147.14;100.00;58812.66;5060860;28;29683;-69
2022/08/20 11:27:30;;;;;;;;;0.75;0.75;;;;;-147.14;100.00;58812.66;5068424;28;22841;-64
2022/08/20 11:29:56;;;;;;;;;0.00;0.00;;;;;-147.14;100.00;58812.66;5069206;28;8833;-64
2022/08/20 11:32:22;;;;;;;;;0.50;0.50;;;;;-147.14;100.00;58812.66;5067278;28;31231;-63
2022/08/20 11:34:48;;;;;;;;;2.20;0.20;;;;;-147.14;100.00;58812.66;5063653;28;8809;-64
2022/08/20 11:37:14;;;;;;;;;3.75;0.50;;;;;-147.14;100.00;58812.66;5065017;28;9642;-71
2022/08/20 11:39:41;;;;;;;;;0.80;0.80;;;;;-147.14;100.00;58812.66;5039208;28;8942;-67
2022/08/20 11:42:06;;;;;;;;;0.20;0.20;;;;;-147.14;100.00;58812.66;5064579;28;8888;-73
2022/08/20 11:44:31;;;;;;;;;0.50;0.00;;;;;-147.14;100.00;58812.66;5068557;28;12559;-73
2022/08/20 11:47:02;;;;;;;;;1.50;0.00;;;;;-147.14;100.00;58812.66;5064577;28;34170;-73
2022/08/20 11:49:29;;;;;;;;;0.80;0.80;;;;;-147.14;100.00;58812.66;5070519;28;8844;-63
2022/08/20 11:51:54;;;;;;;;;0.00;0.00;;;;;-147.14;100.00;58812.66;5068655;28;8830;-63
2022/08/20 11:54:19;;;;;;;;;0.00;0.00;;;;;-147.14;100.00;58812.66;5064760;28;33056;-63
2022/08/20 11:56:45;;;;;;;;;0.75;0.75;;;;;-147.14;100.00;58812.66;5062387;28;33757;-63
2022/08/20 11:59:10;;;;;;;;;0.00;0.00;;;;;-147.14;100.00;58812.66;5058606;28;8857;-67
2022/08/20 12:01:36;;;;;;;;;0.00;0.00;;;;;-147.14;100.00;58812.66;5059282;28;16582;-67
2022/08/20 12:04:01;;;;;;;;;0.00;0.00;;;;;-147.14;100.00;58812.66;5065032;28;23182;-67
2022/08/20 12:06:27;;;;;;;;;0.50;0.50;;;;;-147.14;100.00;58812.66;5068113;28;8839;-67
2022/08/20 12:08:52;;;;;;;;;0.00;0.00;;;;;-147.14;100.00;58812.66;5048411;28;8828;-68
2022/08/20 12:11:17;;;;;;;;;1.00;1.00;;;;;-147.14;100.00;58812.66;5043182;28;32885;-67
2022/08/20 12:13:43;;;;;;;;;0.00;0.00;;;;;-147.14;100.00;58812.66;5071720;28;19166;-68
2022/08/20 12:16:08;;;;;;;;;0.00;0.00;;;;;-147.14;100.00;58812.66;5059513;28;21772;-68
2022/08/20 12:18:33;;;;;;;;;1.00;0.00;;;;;-147.14;100.00;58812.66;5068732;28;8864;-68
2022/08/20 12:20:59;;;;;;;;;0.00;0.00;;;;;-147.14;100.00;58812.66;5040888;28;8862;-68
2022/08/20 12:23:24;;;;;;;;;0.75;0.00;;;;;-147.14;100.00;58812.66;5063406;28;21437;-61
2022/08/20 12:25:49;;;;;;;;;2.25;1.00;;;;;-147.14;100.00;58812.66;5039985;28;27092;-69
2022/08/20 12:28:15;;;;;;;;;1.50;1.00;;;;;-147.14;100.00;58812.66;5056822;28;8840;-71
2022/08/20 12:30:41;;;;;;;;;1.00;1.00;;;;;-147.14;100.00;58812.66;5056659;28;33145;-69
2022/08/20 12:33:06;;;;;;;;;0.00;0.00;;;;;-147.14;100.00;58812.66;5057394;28;8842;-70
2022/08/20 12:35:31;;;;;;;;;1.25;0.75;;;;;-147.14;100.00;58812.66;5059801;28;8817;-70
2022/08/20 12:37:57;;;;;;;;;0.75;0.75;;;;;-147.14;100.00;58812.66;5072308;28;8830;-71
2022/08/20 12:40:24;;;;;;;;;2.00;0.75;;;;;-147.14;100.00;58812.66;5058710;28;32883;-70
2022/08/20 12:42:50;;;;;;;;;0.20;0.20;;;;;-147.14;100.00;58812.66;5058581;28;8808;-70
2022/08/20 12:45:16;;;;;;;;;0.00;0.00;;;;;-147.14;100.00;58812.66;5062341;28;8818;-70
2022/08/20 12:47:43;;;;;;;;;1.40;1.40;;;;;-147.14;100.00;58812.66;5072783;28;8778;-71
2022/08/20 12:50:12;;;;;;;;;0.20;0.20;;;;;-147.14;100.00;58812.66;5058115;28;8961;-72
2022/08/20 12:52:38;;;;;;;;;0.00;0.00;;;;;-147.14;100.00;58812.66;5066936;28;8786;-72
2022/08/20 12:55:05;;;;;;;;;0.60;0.60;;;;;-147.14;100.00;58812.66;5060645;28;8786;-72
2022/08/20 12:57:37;;;;;;;;;0.40;0.40;;;;;-147.14;100.00;58812.66;5054962;28;8741;-71
2022/08/20 13:00:28;;;;;;;;;3.80;2.20;;;;;-147.14;100.00;58812.66;5056267;28;8820;-72
2022/08/20 13:02:54;;;;;;;;;1.00;1.00;;;;;-147.14;100.00;58812.66;5049404;28;8866;-70
2022/08/20 13:05:20;;;;;;;;;2.40;2.00;;;;;-147.14;100.00;58812.66;5058758;28;8745;-66
2022/08/20 13:07:46;;;;;;;;;1.75;0.75;;;;;-147.14;100.00;58812.66;5050148;28;8850;-64
2022/08/20 13:10:22;;;;;;;;;2.80;1.00;;;;;-147.14;100.00;58812.66;5056914;28;8946;-64
2022/08/20 13:12:48;;;;;;;;;1.40;1.40;;;;;-147.14;100.00;58812.66;5045498;28;8775;-66
2022/08/20 13:15:13;;;;;;;;;2.00;2.00;;;;;-147.14;100.00;58812.66;5066010;28;8892;-67
2022/08/20 13:17:39;;;;;;;;;1.25;1.25;;;;;-147.14;100.00;58812.66;5061859;28;8832;-66
2022/08/20 13:20:07;;;;;;;;;0.50;0.50;;;;;-147.14;100.00;58812.66;5067130;28;10209;-69
2022/08/20 13:22:32;;;;;;;;;1.60;1.60;;;;;-147.14;100.00;58812.66;5055288;28;8839;-67
2022/08/20 13:24:57;;;;;;;;;1.00;1.00;;;;;-147.14;100.00;58812.66;5060651;28;8832;-66
2022/08/20 13:27:23;;;;;;;;;1.50;0.00;;;;;-147.14;100.00;58812.66;5053297;28;35658;-66
2022/08/20 13:29:52;;;;;;;;;1.00;1.00;;;;;-147.14;100.00;58812.66;5054867;28;9609;-66
2022/08/20 13:32:18;;;;;;;;;1.40;1.40;;;;;-147.14;100.00;58812.66;5056569;28;8832;-66
2022/08/20 13:34:44;;;;;;;;;0.00;0.00;;;;;-147.14;100.00;58812.66;5063479;28;8798;-66
2022/08/20 13:37:17;;;;;;;;;0.60;0.60;;;;;-147.14;100.00;58812.66;5061422;28;12494;-66
2022/08/20 13:39:43;;;;;;;;;0.20;0.20;;;;;-147.14;100.00;58812.66;5060906;28;8825;-66
2022/08/20 13:42:09;;;;;;;;;5.25;2.75;;;;;-147.14;100.00;58812.66;5064288;28;8869;-66
2022/08/20 13:44:35;;;;;;;;;1.80;1.80;;;;;-147.14;100.00;58812.66;5061395;28;8824;-66
2022/08/20 13:47:13;;;;;;;;;0.00;0.00;;;;;-147.14;100.00;58812.66;5061832;28;24901;-66
2022/08/20 13:49:38;;;;;;;;;4.00;0.80;;;;;-147.14;100.00;58812.66;5059421;28;11507;-65
2022/08/20 13:52:03;;;;;;;;;0.50;0.50;;;;;-147.14;100.00;58812.66;5053613;28;33860;-67
2022/08/20 13:54:29;;;;;;;;;0.00;0.00;;;;;-147.14;100.00;58812.66;5059281;28;30325;-65
2022/08/20 13:57:03;;;;;;;;;1.00;0.00;;;;;-147.14;100.00;58812.66;5063274;28;34248;-67
2022/08/20 13:59:28;;;;;;;;;1.40;1.20;;;;;-147.14;100.00;58812.66;5064871;28;8805;-65
2022/08/20 14:01:54;;;;;;;;;2.00;0.00;;;;;-147.14;100.00;58812.66;5063483;28;30465;-66
2022/08/20 14:04:19;;;;;;;;;0.00;0.00;;;;;-147.14;100.00;58812.66;5055679;28;31761;-67
2022/08/20 14:06:44;;;;;;;;;2.00;0.25;;;;;-147.14;100.00;58812.66;5063161;28;29860;-66
2022/08/20 14:09:10;;;;;;;;;1.00;0.00;;;;;-147.14;100.00;58812.66;5062677;28;35873;-66
2022/08/20 14:11:35;;;;;;;;;0.00;0.00;;;;;-147.14;100.00;58812.66;5053980;28;30240;-66
2022/08/20 14:14:01;;;;;;;;;0.25;0.25;;;;;-147.14;100.00;58812.66;5037992;28;8845;-67
2022/08/20 14:16:28;;;;;;;;;0.60;0.60;;;;;-147.14;100.00;58812.66;5062666;28;8805;-65
2022/08/20 14:18:55;;;;;;;;;2.00;0.20;;;;;-147.14;100.00;58812.66;5056615;28;8851;-67
2022/08/20 14:21:20;;;;;;;;;0.40;0.40;;;;;-147.14;100.00;58812.66;5059651;28;8798;-66
2022/08/20 14:23:45;;;;;;;;;0.25;0.25;;;;;-147.14;100.00;58812.66;5061689;28;8856;-66
2022/08/20 14:26:11;;;;;;;;;0.00;0.00;;;;;-147.14;100.00;58812.66;5057248;28;8813;-65
2022/08/20 14:28:36;;;;;;;;;1.75;1.00;;;;;-147.14;100.00;58812.66;5057338;28;29951;-66
2022/08/20 14:31:01;;;;;;;;;0.00;0.00;;;;;-147.14;100.00;58812.66;5059869;28;21655;-66
2022/08/20 14:33:27;;;;;;;;;0.25;0.25;;;;;-147.14;100.00;58812.66;5062707;28;27950;-66
2022/08/20 14:35:52;;;;;;;;;0.75;0.75;;;;;-147.14;100.00;58812.66;5046509;28;9598;-66
2022/08/20 14:38:18;;;;;;;;;0.50;0.50;;;;;-147.14;100.00;58812.66;5059419;28;8895;-66
2022/08/20 14:40:43;;;;;;;;;0.00;0.00;;;;;-147.14;100.00;58812.66;5063619;28;8832;-67
2022/08/20 14:43:08;;;;;;;;;1.00;1.00;;;;;-147.14;100.00;58812.66;5064119;28;8827;-66
2022/08/20 14:45:34;;;;;;;;;0.00;0.00;;;;;-147.14;100.00;58812.66;5061708;28;8821;-66
2022/08/20 14:47:59;;;;;;;;;0.00;0.00;;;;;-147.14;100.00;58812.66;5048434;28;34246;-66
2022/08/20 14:50:30;;;;;;;;;0.00;0.00;;;;;-147.14;100.00;58812.66;5058618;28;8885;-65
2022/08/20 14:52:56;;;;;;;;;0.00;0.00;;;;;-147.14;100.00;58812.66;5054622;28;9714;-66
2022/08/20 14:55:24;;;;;;;;;1.75;1.00;;;;;-147.14;100.00;58812.66;5060459;28;8811;-67
2022/08/20 14:57:50;;;;;;;;;0.00;0.00;;;;;-147.14;100.00;58812.66;5055803;28;8831;-66
2022/08/20 15:00:18;;;;;;;;;0.25;0.25;;;;;-147.14;100.00;58812.66;5069334;28;33575;-67
2022/08/20 15:02:45;;;;;;;;;0.00;0.00;;;;;-147.14;100.00;58812.66;5063955;28;8844;-68
2022/08/20 15:05:10;;;;;;;;;0.80;0.80;;;;;-147.14;100.00;58812.66;5033107;28;8820;-67
2022/08/20 15:07:39;;;;;;;;;1.00;0.00;;;;;-147.14;100.00;58812.66;5066804;28;8854;-67
2022/08/20 15:10:17;;;;;;;;;0.20;0.20;;;;;-147.14;100.00;58812.66;5061281;28;8820;-69
2022/08/20 15:12:42;;;;;;;;;0.00;0.00;;;;;-147.14;100.00;58812.66;5062133;28;8878;-67
2022/08/20 15:15:09;;;;;;;;;0.00;0.00;;;;;-147.14;100.00;58812.66;5063333;28;8812;-67
2022/08/20 15:17:35;;;;;;;;;1.20;0.00;;;;;-147.14;100.00;58812.66;5060478;28;8774;-69
2022/08/20 15:20:05;;;;;;;;;0.50;0.50;;;;;-147.14;100.00;58812.66;5067464;28;21366;-64
2022/08/20 15:22:31;;;;;;;;;0.20;0.20;;;;;-147.14;100.00;58812.66;5066682;28;8796;-64
2022/08/20 15:24:56;;;;;;;;;0.00;0.00;;;;;-147.14;100.00;58812.66;5061508;28;28755;-64
2022/08/20 15:27:24;;;;;;;;;1.00;0.00;;;;;-147.14;100.00;58812.66;5057617;28;30760;-64
2022/08/20 15:29:50;;;;;;;;;0.00;0.00;;;;;-147.14;100.00;58812.66;5076246;28;8862;-64
2022/08/20 15:32:16;;;;;;;;;0.00;0.00;;;;;-147.14;100.00;58812.66;5074789;28;8817;-64
2022/08/20 15:34:41;;;;;;;;;1.00;0.00;;;;;-147.14;100.00;58812.66;5064303;28;8913;-64
2022/08/20 15:37:13;;;;;;;;;0.00;0.00;;;;;-147.14;100.00;58812.66;5057173;28;8859;-64
2022/08/20 15:39:40;;;;;;;;;0.80;0.80;;;;;-147.14;100.00;58812.66;5067655;28;9904;-64
2022/08/20 15:42:06;;;;;;;;;0.00;0.00;;;;;-147.14;100.00;58812.66;5059239;28;8800;-64
2022/08/20 15:44:32;;;;;;;;;0.00;0.00;;;;;-147.14;100.00;58812.66;5056744;28;8806;-63
2022/08/20 15:47:27;;;;;;;;;0.75;0.75;;;;;-147.14;100.00;58812.66;5069332;28;8826;-63
2022/08/20 15:50:02;;;;;;;;;0.00;0.00;;;;;-147.14;100.00;58812.66;5055612;28;8829;-64
2022/08/20 15:52:32;;;;;;;;;0.00;0.00;;;;;-147.14;100.00;58812.66;5064943;28;9713;-64
2022/08/20 15:55:00;;;;;;;;;0.00;0.00;;;;;-147.14;100.00;58812.66;5043544;28;8834;-64
2022/08/20 15:58:13;;;;;;;;;1.20;0.60;;;;;-147.14;100.00;58812.66;5041438;28;8831;-63
2022/08/20 16:01:00;;;;;;;;;0.00;0.00;;;;;-147.14;100.00;58812.66;5022144;28;8851;-64
2022/08/20 16:03:38;;;;;;;;;0.00;0.00;;;;;-147.14;100.00;58812.66;5059506;28;8839;-64
2022/08/20 16:06:15;;;;;;;;;0.00;0.00;;;;;-147.14;100.00;58812.66;5057638;28;8801;-63
2022/08/20 16:09:02;;;;;;;;;0.20;0.20;;;;;-147.14;100.00;58812.66;5065758;28;8761;-64
2022/08/20 16:11:52;;;;;;;;;1.40;1.40;;;;;-147.14;100.00;58812.66;5041990;28;8833;-64
2022/08/20 16:14:24;;;;;;;;;0.00;0.00;;;;;-147.14;100.00;58812.66;5060246;28;8835;-64
2022/08/20 16:16:53;;;;;;;;;0.60;0.20;;;;;-147.14;100.00;58812.66;5066049;28;8814;-64
2022/08/20 16:19:27;;;;;;;;;0.00;0.00;;;;;-147.14;100.00;58812.66;5059537;28;8938;-63
2022/08/20 16:21:56;;;;;;;;;0.00;0.00;;;;;-147.14;100.00;58812.66;5073196;28;8798;-64
2022/08/20 16:24:21;;;;;;;;;0.00;0.00;;;;;-147.14;100.00;58812.66;5041536;28;8796;-64
2022/08/20 16:26:58;;;;;;;;;0.00;0.00;;;;;-147.14;100.00;58812.66;5052134;28;9270;-65
2022/08/20 16:29:29;;;;;;;;;0.00;0.00;;;;;-147.14;100.00;58812.66;5061526;28;8804;-65
2022/08/20 16:32:01;;;;;;;;;0.00;0.00;;;;;-147.14;100.00;58812.66;5077140;28;8801;-64
2022/08/20 16:34:50;;;;;;;;;0.00;0.00;;;;;-147.14;100.00;58812.66;5074151;28;8784;-65
2022/08/20 16:37:37;;;;;;;;;2.00;1.00;;;;;-147.14;100.00;58812.66;5069375;28;8905;-65
2022/08/20 16:40:21;;;;;;;;;0.00;0.00;;;;;-147.14;100.00;58812.66;5063752;28;8796;-64
2022/08/20 16:42:52;;;;;;;;;0.60;0.60;;;;;-147.14;100.00;58812.66;5057134;28;8825;-65
2022/08/20 16:45:26;;;;;;;;;0.00;0.00;;;;;-147.14;100.00;58812.66;5067419;28;8907;-65
2022/08/20 16:47:56;;;;;;;;;0.00;0.00;;;;;-147.14;100.00;58812.66;5058755;28;8820;-65
2022/08/20 16:50:25;;;;;;;;;2.40;1.00;;;;;-147.14;100.00;58812.66;5058346;28;8827;-65
2022/08/20 16:52:50;;;;;;;;;0.00;0.00;;;;;-147.14;100.00;58812.66;5067321;28;8815;-65
2022/08/20 16:55:18;;;;;;;;;0.00;0.00;;;;;-147.14;100.00;58812.66;5059045;28;8832;-64
2022/08/20 16:57:45;;;;;;;;;0.20;0.20;;;;;-147.14;100.00;58812.66;5054614;28;8810;-65
2022/08/20 17:00:19;;;;;;;;;0.00;0.00;;;;;-147.14;100.00;58812.66;5049142;28;8824;-65
2022/08/20 17:02:58;;;;;;;;;0.00;0.00;;;;;-147.14;100.00;58812.66;5047311;28;8795;-65
2022/08/20 17:05:44;;;;;;;;;0.00;0.00;;;;;-147.14;100.00;58812.66;5046867;28;8748;-65
2022/08/20 17:08:35;;;;;;;;;0.00;0.00;;;;;-147.14;100.00;58812.66;5042853;28;8798;-65
2022/08/20 17:11:07;;;;;;;;;0.00;0.00;;;;;-147.14;100.00;58812.66;5047399;28;8831;-65
2022/08/20 17:13:37;;;;;;;;;0.00;0.00;;;;;-147.14;100.00;58812.66;5053606;28;8803;-64
2022/08/20 17:16:05;;;;;;;;;0.00;0.00;;;;;-147.14;100.00;58812.66;5046484;28;8822;-66
2022/08/20 17:18:34;;;;;;;;;0.00;0.00;;;;;-147.14;100.00;58812.66;5053329;28;8795;-64
2022/08/20 17:21:11;;;;;;;;;0.00;0.00;;;;;-147.14;100.00;58812.66;5048495;28;8819;-65
2022/08/20 17:23:39;;;;;;;;;2.00;0.40;;;;;-147.14;100.00;58812.66;5046418;28;8803;-65